createdAt,value
2016-08-22T00:00:35.834Z,0
2016-08-22T00:01:37.237Z,0
2016-08-22T00:02:36.520Z,0
2016-08-22T00:03:36.506Z,0
2016-08-22T00:04:36.507Z,0
2016-08-22T00:05:35.786Z,0
2016-08-22T00:06:36.491Z,0
2016-08-22T00:07:36.475Z,0
2016-08-22T00:08:36.466Z,0
2016-08-22T00:09:35.747Z,0
2016-08-22T00:10:37.146Z,0
2016-08-22T00:11:35.742Z,0
2016-08-22T00:12:37.128Z,0
2016-08-22T00:13:36.410Z,0
2016-08-22T00:14:36.407Z,0
2016-08-22T00:15:35.684Z,0
2016-08-22T00:16:35.679Z,0
2016-08-22T00:17:35.686Z,0
2016-08-22T00:18:35.665Z,0
2016-08-22T00:19:36.364Z,0
2016-08-22T00:20:36.351Z,0
2016-08-22T00:21:37.045Z,0
2016-08-22T00:22:37.090Z,0
2016-08-22T00:23:35.638Z,0
2016-08-22T00:24:36.313Z,0
2016-08-22T00:25:35.592Z,0
2016-08-22T00:26:35.591Z,0
2016-08-22T00:27:36.982Z,0
2016-08-22T00:28:36.284Z,0
2016-08-22T00:29:35.557Z,0
2016-08-22T00:30:36.251Z,0
2016-08-22T00:31:35.538Z,0
2016-08-22T00:32:37.657Z,0
2016-08-22T00:33:35.519Z,0
2016-08-22T00:34:35.507Z,0
2016-08-22T00:35:35.497Z,0
2016-08-22T00:36:35.488Z,0
2016-08-22T00:37:36.193Z,0
2016-08-22T00:38:36.201Z,0
2016-08-22T00:39:36.169Z,0
2016-08-22T00:40:35.454Z,0
2016-08-22T00:41:35.444Z,0
2016-08-22T00:42:36.850Z,0
2016-08-22T00:43:35.426Z,0
2016-08-22T00:44:36.122Z,0
2016-08-22T00:45:36.122Z,0
2016-08-22T00:46:36.110Z,0
2016-08-22T00:47:36.806Z,0
2016-08-22T00:48:36.088Z,0
2016-08-22T00:49:36.076Z,0
2016-08-22T00:50:36.776Z,0
2016-08-22T00:51:36.766Z,0
2016-08-22T00:52:36.047Z,0
2016-08-22T00:53:36.743Z,0
2016-08-22T00:54:35.318Z,0
2016-08-22T00:55:36.725Z,0
2016-08-22T00:56:36.004Z,0
2016-08-22T00:57:35.289Z,0
2016-08-22T00:58:35.990Z,0
2016-08-22T00:59:36.681Z,0
2016-08-22T01:00:35.974Z,0
2016-08-22T01:01:35.962Z,0
2016-08-22T01:02:35.242Z,0
2016-08-22T01:03:35.941Z,0
2016-08-22T01:04:35.227Z,0
2016-08-22T01:05:35.924Z,0
2016-08-22T01:06:36.626Z,0
2016-08-22T01:07:35.205Z,0
2016-08-22T01:08:35.897Z,0
2016-08-22T01:09:35.893Z,0
2016-08-22T01:10:35.884Z,0
2016-08-22T01:11:35.913Z,0
2016-08-22T01:12:35.854Z,0
2016-08-22T01:13:35.839Z,0
2016-08-22T01:14:35.837Z,0
2016-08-22T01:15:35.827Z,0
2016-08-22T01:16:35.106Z,0
2016-08-22T01:17:35.812Z,0
2016-08-22T01:18:35.792Z,0
2016-08-22T01:19:35.078Z,0
2016-08-22T01:20:35.073Z,0
2016-08-22T01:21:35.764Z,0
2016-08-22T01:22:35.759Z,0
2016-08-22T01:23:35.039Z,0
2016-08-22T01:24:35.737Z,0
2016-08-22T01:25:36.435Z,0
2016-08-22T01:26:36.434Z,0
2016-08-22T01:27:34.999Z,0
2016-08-22T01:28:34.991Z,0
2016-08-22T01:29:35.691Z,0
2016-08-22T01:30:35.680Z,0
2016-08-22T01:31:36.372Z,0
2016-08-22T01:32:35.656Z,0
2016-08-22T01:33:35.654Z,0
2016-08-22T01:34:35.647Z,0
2016-08-22T01:35:35.635Z,0
2016-08-22T01:36:34.906Z,0
2016-08-22T01:37:35.609Z,0
2016-08-22T01:38:35.602Z,0
2016-08-22T01:39:36.305Z,0
2016-08-22T01:40:35.586Z,0
2016-08-22T01:41:34.865Z,0
2016-08-22T01:42:35.606Z,0
2016-08-22T01:43:35.552Z,0
2016-08-22T01:44:35.548Z,0
2016-08-22T01:45:36.245Z,0
2016-08-22T01:46:36.938Z,0
2016-08-22T01:47:35.527Z,0
2016-08-22T01:48:35.515Z,0
2016-08-22T01:49:34.783Z,0
2016-08-22T01:50:35.683Z,0
2016-08-22T01:51:35.494Z,0
2016-08-22T01:52:34.760Z,0
2016-08-22T01:53:36.165Z,0
2016-08-22T01:54:35.458Z,0
2016-08-22T01:55:35.484Z,0
2016-08-22T01:56:35.425Z,0
2016-08-22T01:57:34.711Z,0
2016-08-22T01:58:35.406Z,0
2016-08-22T01:59:35.402Z,0
2016-08-22T02:00:35.385Z,0
2016-08-22T02:01:34.662Z,0
2016-08-22T02:02:34.656Z,0
2016-08-22T02:03:35.362Z,0
2016-08-22T02:04:35.347Z,0
2016-08-22T02:05:35.392Z,0
2016-08-22T02:06:35.390Z,0
2016-08-22T02:07:35.317Z,0
2016-08-22T02:08:35.311Z,0
2016-08-22T02:09:35.350Z,0
2016-08-22T02:10:35.288Z,0
2016-08-22T02:11:34.586Z,0
2016-08-22T02:12:35.981Z,0
2016-08-22T02:13:34.549Z,0
2016-08-22T02:14:35.252Z,0
2016-08-22T02:15:34.528Z,0
2016-08-22T02:16:34.518Z,0
2016-08-22T02:17:35.224Z,0
2016-08-22T02:18:34.503Z,0
2016-08-22T02:19:34.489Z,0
2016-08-22T02:20:35.902Z,0
2016-08-22T02:21:34.469Z,0
2016-08-22T02:22:35.168Z,0
2016-08-22T02:23:35.865Z,0
2016-08-22T02:24:35.144Z,0
2016-08-22T02:25:35.849Z,0
2016-08-22T02:26:35.126Z,0
2016-08-22T02:27:35.130Z,0
2016-08-22T02:28:34.397Z,0
2016-08-22T02:29:34.399Z,0
2016-08-22T02:30:34.402Z,0
2016-08-22T02:31:35.081Z,0
2016-08-22T02:32:35.789Z,0
2016-08-22T02:33:35.793Z,0
2016-08-22T02:34:34.345Z,0
2016-08-22T02:35:34.330Z,0
2016-08-22T02:36:35.026Z,0
2016-08-22T02:37:35.018Z,0
2016-08-22T02:38:34.303Z,0
2016-08-22T02:39:34.998Z,0
2016-08-22T02:40:36.408Z,0
2016-08-22T02:41:34.971Z,0
2016-08-22T02:42:35.696Z,0
2016-08-22T02:43:34.971Z,0
2016-08-22T02:44:34.273Z,0
2016-08-22T02:45:34.230Z,0
2016-08-22T02:46:34.931Z,0
2016-08-22T02:47:34.205Z,0
2016-08-22T02:48:34.200Z,0
2016-08-22T02:49:35.619Z,0
2016-08-22T02:50:34.886Z,0
2016-08-22T02:51:34.885Z,0
2016-08-22T02:52:35.574Z,0
2016-08-22T02:53:34.148Z,0
2016-08-22T02:54:34.852Z,0
2016-08-22T02:55:34.836Z,0
2016-08-22T02:56:34.134Z,0
2016-08-22T02:57:35.524Z,0
2016-08-22T02:58:34.099Z,0
2016-08-22T02:59:36.226Z,0
2016-08-22T03:00:34.785Z,0
2016-08-22T03:01:35.482Z,0
2016-08-22T03:02:34.767Z,0
2016-08-22T03:03:34.769Z,0
2016-08-22T03:04:34.046Z,0
2016-08-22T03:05:35.442Z,0
2016-08-22T03:06:35.460Z,0
2016-08-22T03:07:34.777Z,0
2016-08-22T03:08:36.147Z,0
2016-08-22T03:09:34.725Z,0
2016-08-22T03:10:33.983Z,0
2016-08-22T03:11:35.386Z,0
2016-08-22T03:12:34.671Z,0
2016-08-22T03:13:34.660Z,0
2016-08-22T03:14:34.645Z,0
2016-08-22T03:15:35.381Z,0
2016-08-22T03:16:35.358Z,0
2016-08-22T03:17:33.905Z,0
2016-08-22T03:18:34.616Z,0
2016-08-22T03:19:34.608Z,0
2016-08-22T03:20:34.588Z,0
2016-08-22T03:21:35.296Z,0
2016-08-22T03:22:35.279Z,0
2016-08-22T03:23:33.866Z,0
2016-08-22T03:24:34.550Z,0
2016-08-22T03:25:33.835Z,0
2016-08-22T03:26:35.232Z,0
2016-08-22T03:27:33.811Z,0
2016-08-22T03:28:34.506Z,0
2016-08-22T03:29:33.793Z,0
2016-08-22T03:30:35.265Z,0
2016-08-22T03:31:33.769Z,0
2016-08-22T03:32:35.890Z,0
2016-08-22T03:33:33.754Z,0
2016-08-22T03:34:34.462Z,0
2016-08-22T03:35:35.149Z,0
2016-08-22T03:36:35.151Z,0
2016-08-22T03:37:33.706Z,0
2016-08-22T03:38:35.112Z,0
2016-08-22T03:39:34.397Z,0
2016-08-22T03:40:35.815Z,0
2016-08-22T03:41:35.084Z,0
2016-08-22T03:42:35.079Z,0
2016-08-22T03:43:34.361Z,0
2016-08-22T03:44:35.057Z,0
2016-08-22T03:45:34.333Z,0
2016-08-22T03:46:35.745Z,0
2016-08-22T03:47:35.027Z,0
2016-08-22T03:48:34.314Z,0
2016-08-22T03:49:35.006Z,0
2016-08-22T03:50:35.399Z,0
2016-08-22T03:51:33.568Z,0
2016-08-22T03:52:34.268Z,0
2016-08-22T03:53:34.259Z,0
2016-08-22T03:54:34.952Z,0
2016-08-22T03:55:34.254Z,0
2016-08-22T03:56:34.229Z,4
2016-08-22T03:57:34.211Z,4
2016-08-22T03:58:34.210Z,0
2016-08-22T03:59:33.538Z,0
2016-08-22T04:00:34.184Z,4
2016-08-22T04:01:34.175Z,4
2016-08-22T04:02:34.187Z,4
2016-08-22T04:03:33.444Z,4
2016-08-22T04:04:34.884Z,4
2016-08-22T04:05:35.563Z,4
2016-08-22T04:06:34.838Z,12
2016-08-22T04:07:34.119Z,12
2016-08-22T04:08:34.818Z,12
2016-08-22T04:09:34.106Z,16
2016-08-22T04:10:33.380Z,16
2016-08-22T04:11:34.081Z,20
2016-08-22T04:12:35.495Z,24
2016-08-22T04:13:33.347Z,28
2016-08-22T04:14:33.348Z,32
2016-08-22T04:15:34.031Z,36
2016-08-22T04:16:33.310Z,44
2016-08-22T04:17:33.311Z,48
2016-08-22T04:18:34.003Z,52
2016-08-22T04:19:33.989Z,60
2016-08-22T04:20:34.695Z,72
2016-08-22T04:21:33.972Z,84
2016-08-22T04:22:34.713Z,96
2016-08-22T04:23:33.980Z,108
2016-08-22T04:24:33.952Z,120
2016-08-22T04:25:34.647Z,132
2016-08-22T04:26:33.925Z,140
2016-08-22T04:27:33.923Z,152
2016-08-22T04:28:33.197Z,160
2016-08-22T04:29:33.183Z,164
2016-08-22T04:30:33.899Z,172
2016-08-22T04:31:33.908Z,184
2016-08-22T04:32:34.569Z,188
2016-08-22T04:33:34.559Z,200
2016-08-22T04:34:33.847Z,208
2016-08-22T04:35:33.834Z,216
2016-08-22T04:36:33.119Z,212
2016-08-22T04:37:33.818Z,204
2016-08-22T04:38:34.517Z,200
2016-08-22T04:39:34.510Z,196
2016-08-22T04:40:34.497Z,204
2016-08-22T04:41:33.783Z,220
2016-08-22T04:42:34.495Z,244
2016-08-22T04:43:33.762Z,268
2016-08-22T04:44:35.165Z,280
2016-08-22T04:45:33.040Z,296
2016-08-22T04:46:33.032Z,324
2016-08-22T04:47:35.124Z,348
2016-08-22T04:48:34.420Z,368
2016-08-22T04:49:33.700Z,388
2016-08-22T04:50:35.109Z,408
2016-08-22T04:51:35.093Z,408
2016-08-22T04:52:32.956Z,396
2016-08-22T04:53:34.377Z,364
2016-08-22T04:54:32.939Z,360
2016-08-22T04:55:34.343Z,372
2016-08-22T04:56:34.335Z,368
2016-08-22T04:57:33.622Z,376
2016-08-22T04:58:33.608Z,380
2016-08-22T04:59:34.305Z,384
2016-08-22T05:00:32.882Z,400
2016-08-22T05:01:35.044Z,432
2016-08-22T05:02:35.011Z,484
2016-08-22T05:03:33.561Z,532
2016-08-22T05:04:33.564Z,568
2016-08-22T05:05:33.537Z,608
2016-08-22T05:06:32.820Z,668
2016-08-22T05:07:33.514Z,744
2016-08-22T05:08:33.508Z,772
2016-08-22T05:09:33.488Z,776
2016-08-22T05:10:34.190Z,752
2016-08-22T05:11:34.187Z,724
2016-08-22T05:12:33.464Z,732
2016-08-22T05:13:34.169Z,760
2016-08-22T05:14:34.865Z,788
2016-08-22T05:15:34.839Z,792
2016-08-22T05:16:32.720Z,788
2016-08-22T05:17:34.116Z,828
2016-08-22T05:18:32.690Z,868
2016-08-22T05:19:34.821Z,924
2016-08-22T05:20:34.089Z,960
2016-08-22T05:21:33.378Z,996
2016-08-22T05:22:32.657Z,1048
2016-08-22T05:23:32.656Z,1112
2016-08-22T05:24:34.045Z,1160
2016-08-22T05:25:34.043Z,1160
2016-08-22T05:26:34.035Z,1132
2016-08-22T05:27:32.601Z,1140
2016-08-22T05:28:34.023Z,1188
2016-08-22T05:29:32.586Z,1220
2016-08-22T05:30:33.281Z,1212
2016-08-22T05:31:32.566Z,1208
2016-08-22T05:32:33.972Z,1280
2016-08-22T05:33:32.550Z,1376
2016-08-22T05:34:33.968Z,1352
2016-08-22T05:35:34.002Z,1240
2016-08-22T05:36:33.249Z,1144
2016-08-22T05:37:33.937Z,1056
2016-08-22T05:38:34.624Z,988
2016-08-22T05:39:33.909Z,988
2016-08-22T05:40:33.188Z,1036
2016-08-22T05:41:33.172Z,1164
2016-08-22T05:42:33.870Z,1324
2016-08-22T05:43:33.149Z,1512
2016-08-22T05:44:32.437Z,1652
2016-08-22T05:45:32.433Z,1784
2016-08-22T05:46:33.126Z,1900
2016-08-22T05:47:33.826Z,1964
2016-08-22T05:48:33.109Z,1968
2016-08-22T05:49:32.381Z,1760
2016-08-22T05:50:33.995Z,1496
2016-08-22T05:51:33.805Z,1316
2016-08-22T05:52:33.060Z,1236
2016-08-22T05:53:33.057Z,1156
2016-08-22T05:54:32.337Z,1104
2016-08-22T05:55:33.753Z,1076
2016-08-22T05:56:34.546Z,1028
2016-08-22T05:57:32.325Z,1064
2016-08-22T05:58:33.005Z,1092
2016-08-22T05:59:33.001Z,1172
2016-08-22T06:00:32.998Z,1136
2016-08-22T06:01:32.269Z,1156
2016-08-22T06:02:32.969Z,1088
2016-08-22T06:03:34.374Z,1080
2016-08-22T06:04:32.949Z,1092
2016-08-22T06:05:32.237Z,1108
2016-08-22T06:06:33.639Z,1120
2016-08-22T06:07:32.220Z,1156
2016-08-22T06:08:33.621Z,1192
2016-08-22T06:09:32.902Z,1276
2016-08-22T06:10:32.188Z,1364
2016-08-22T06:11:33.590Z,1368
2016-08-22T06:12:32.868Z,1340
2016-08-22T06:13:33.579Z,1324
2016-08-22T06:14:33.560Z,1380
2016-08-22T06:15:32.139Z,1388
2016-08-22T06:16:32.841Z,1372
2016-08-22T06:17:32.825Z,1324
2016-08-22T06:18:33.525Z,1284
2016-08-22T06:19:33.515Z,1344
2016-08-22T06:20:32.105Z,1344
2016-08-22T06:21:32.789Z,1324
2016-08-22T06:22:32.790Z,1368
2016-08-22T06:23:32.060Z,1312
2016-08-22T06:24:32.767Z,1212
2016-08-22T06:25:34.176Z,1124
2016-08-22T06:26:32.034Z,1092
2016-08-22T06:27:32.739Z,1072
2016-08-22T06:28:32.718Z,1028
2016-08-22T06:29:33.415Z,1204
2016-08-22T06:30:32.705Z,1260
2016-08-22T06:31:33.405Z,1376
2016-08-22T06:32:32.682Z,1576
2016-08-22T06:33:32.672Z,1704
2016-08-22T06:34:32.663Z,1748
2016-08-22T06:35:31.945Z,1832
2016-08-22T06:36:33.357Z,1920
2016-08-22T06:37:33.349Z,2028
2016-08-22T06:38:31.925Z,2192
2016-08-22T06:39:32.622Z,2424
2016-08-22T06:40:32.615Z,2536
2016-08-22T06:41:33.303Z,2636
2016-08-22T06:42:31.879Z,2876
2016-08-22T06:43:32.577Z,3104
2016-08-22T06:44:31.862Z,3376
2016-08-22T06:45:33.263Z,3384
2016-08-22T06:46:33.262Z,3288
2016-08-22T06:47:31.858Z,3204
2016-08-22T06:48:32.531Z,3208
2016-08-22T06:49:32.521Z,3152
2016-08-22T06:50:33.218Z,3012
2016-08-22T06:51:33.920Z,2904
2016-08-22T06:52:33.210Z,2864
2016-08-22T06:53:31.779Z,2900
2016-08-22T06:54:32.475Z,3068
2016-08-22T06:55:32.465Z,3340
2016-08-22T06:56:32.457Z,3620
2016-08-22T06:57:33.155Z,3864
2016-08-22T06:58:32.436Z,3956
2016-08-22T06:59:32.430Z,3980
2016-08-22T07:00:32.422Z,3772
2016-08-22T07:01:33.115Z,3764
2016-08-22T07:02:31.692Z,3804
2016-08-22T07:03:32.400Z,4036
2016-08-22T07:04:33.081Z,3912
2016-08-22T07:05:33.793Z,3544
2016-08-22T07:06:32.372Z,3000
2016-08-22T07:07:32.357Z,2672
2016-08-22T07:08:33.057Z,2688
2016-08-22T07:09:33.042Z,2788
2016-08-22T07:10:33.036Z,2652
2016-08-22T07:11:33.034Z,2468
2016-08-22T07:12:32.306Z,2248
2016-08-22T07:13:32.297Z,2356
2016-08-22T07:14:32.997Z,2408
2016-08-22T07:15:32.296Z,2444
2016-08-22T07:16:32.272Z,2644
2016-08-22T07:17:32.985Z,2952
2016-08-22T07:18:31.543Z,3200
2016-08-22T07:19:32.251Z,3216
2016-08-22T07:20:32.233Z,3364
2016-08-22T07:21:31.521Z,3200
2016-08-22T07:22:32.215Z,3092
2016-08-22T07:23:32.208Z,3100
2016-08-22T07:24:31.484Z,3244
2016-08-22T07:25:31.491Z,3384
2016-08-22T07:26:31.469Z,3396
2016-08-22T07:27:31.473Z,3372
2016-08-22T07:28:32.872Z,3472
2016-08-22T07:29:32.149Z,3544
2016-08-22T07:30:32.133Z,3268
2016-08-22T07:31:33.554Z,3112
2016-08-22T07:32:32.828Z,2920
2016-08-22T07:33:32.821Z,2632
2016-08-22T07:34:32.107Z,2464
2016-08-22T07:35:31.387Z,2528
2016-08-22T07:36:32.083Z,2704
2016-08-22T07:37:31.372Z,2716
2016-08-22T07:38:32.102Z,2536
2016-08-22T07:39:31.364Z,2372
2016-08-22T07:40:32.765Z,2364
2016-08-22T07:41:32.747Z,2532
2016-08-22T07:42:32.744Z,2660
2016-08-22T07:43:32.022Z,2708
2016-08-22T07:44:32.717Z,2668
2016-08-22T07:45:31.999Z,2716
2016-08-22T07:46:31.286Z,2852
2016-08-22T07:47:31.274Z,2816
2016-08-22T07:48:32.686Z,2644
2016-08-22T07:49:32.672Z,2728
2016-08-22T07:50:32.664Z,2632
2016-08-22T07:51:31.445Z,2564
2016-08-22T07:52:32.640Z,2548
2016-08-22T07:53:32.650Z,2644
2016-08-22T07:54:31.916Z,2684
2016-08-22T07:55:31.907Z,2988
2016-08-22T07:56:31.901Z,3044
2016-08-22T07:57:31.202Z,2996
2016-08-22T07:58:31.212Z,3344
2016-08-22T07:59:33.303Z,3116
2016-08-22T08:00:31.168Z,3356
2016-08-22T08:01:32.570Z,3500
2016-08-22T08:02:31.850Z,3612
2016-08-22T08:03:31.155Z,3792
2016-08-22T08:04:31.133Z,4040
2016-08-22T08:05:33.237Z,4148
2016-08-22T08:06:31.814Z,4036
2016-08-22T08:07:31.810Z,3904
2016-08-22T08:08:31.091Z,4072
2016-08-22T08:09:32.499Z,4232
2016-08-22T08:10:31.798Z,4076
2016-08-22T08:11:31.062Z,4448
2016-08-22T08:12:31.771Z,4568
2016-08-22T08:13:31.751Z,4648
2016-08-22T08:14:33.163Z,5432
2016-08-22T08:15:32.432Z,5464
2016-08-22T08:16:31.017Z,4828
2016-08-22T08:17:32.421Z,4380
2016-08-22T08:18:32.409Z,4616
2016-08-22T08:19:32.409Z,4800
2016-08-22T08:20:31.687Z,4616
2016-08-22T08:21:31.677Z,4592
2016-08-22T08:22:30.959Z,4580
2016-08-22T08:23:31.665Z,4380
2016-08-22T08:24:32.357Z,4640
2016-08-22T08:25:32.359Z,4732
2016-08-22T08:26:31.641Z,4752
2016-08-22T08:27:31.638Z,4976
2016-08-22T08:28:31.622Z,5004
2016-08-22T08:29:31.608Z,4956
2016-08-22T08:30:31.599Z,5216
2016-08-22T08:31:31.594Z,5200
2016-08-22T08:32:30.880Z,5644
2016-08-22T08:33:32.988Z,5508
2016-08-22T08:34:31.563Z,4908
2016-08-22T08:35:32.261Z,4880
2016-08-22T08:36:30.839Z,4640
2016-08-22T08:37:31.541Z,4080
2016-08-22T08:38:31.526Z,3912
2016-08-22T08:39:32.233Z,3796
2016-08-22T08:40:32.219Z,3268
2016-08-22T08:41:31.506Z,2996
2016-08-22T08:42:31.504Z,3104
2016-08-22T08:43:32.192Z,3044
2016-08-22T08:44:32.178Z,3356
2016-08-22T08:45:32.174Z,3308
2016-08-22T08:46:31.468Z,3576
2016-08-22T08:47:32.871Z,3888
2016-08-22T08:48:31.436Z,4052
2016-08-22T08:49:30.726Z,3980
2016-08-22T08:50:30.717Z,4360
2016-08-22T08:51:32.830Z,4364
2016-08-22T08:52:32.824Z,4476
2016-08-22T08:53:31.395Z,5468
2016-08-22T08:54:30.688Z,5336
2016-08-22T08:55:32.086Z,4896
2016-08-22T08:56:30.665Z,5204
2016-08-22T08:57:31.374Z,5356
2016-08-22T08:58:31.353Z,5440
2016-08-22T08:59:30.640Z,5640
2016-08-22T09:00:30.632Z,5492
2016-08-22T09:01:32.030Z,4980
2016-08-22T09:02:31.319Z,4804
2016-08-22T09:03:31.307Z,4372
2016-08-22T09:04:30.595Z,4656
2016-08-22T09:05:31.994Z,4152
2016-08-22T09:06:31.279Z,3932
2016-08-22T09:07:31.272Z,4432
2016-08-22T09:08:32.678Z,4528
2016-08-22T09:09:31.255Z,4136
2016-08-22T09:10:30.539Z,5148
2016-08-22T09:11:30.551Z,5776
2016-08-22T09:12:31.225Z,5780
2016-08-22T09:13:31.924Z,5976
2016-08-22T09:14:31.215Z,4392
2016-08-22T09:15:30.502Z,3636
2016-08-22T09:16:31.206Z,3736
2016-08-22T09:17:31.893Z,3384
2016-08-22T09:18:30.473Z,3048
2016-08-22T09:19:30.456Z,3216
2016-08-22T09:20:31.165Z,3284
2016-08-22T09:21:31.868Z,2872
2016-08-22T09:22:31.139Z,2788
2016-08-22T09:23:31.848Z,2700
2016-08-22T09:24:30.423Z,2576
2016-08-22T09:25:30.406Z,2152
2016-08-22T09:26:31.116Z,2296
2016-08-22T09:27:32.515Z,2216
2016-08-22T09:28:30.382Z,2096
2016-08-22T09:29:31.085Z,2060
2016-08-22T09:30:31.780Z,2200
2016-08-22T09:31:31.059Z,2428
2016-08-22T09:32:31.049Z,2464
2016-08-22T09:33:31.038Z,2524
2016-08-22T09:34:31.034Z,2428
2016-08-22T09:35:31.038Z,2556
2016-08-22T09:36:31.018Z,2208
2016-08-22T09:37:30.300Z,2232
2016-08-22T09:38:31.695Z,2000
2016-08-22T09:39:30.296Z,2084
2016-08-22T09:40:30.977Z,1752
2016-08-22T09:41:30.963Z,1700
2016-08-22T09:42:30.260Z,1680
2016-08-22T09:43:30.242Z,1724
2016-08-22T09:44:30.943Z,1996
2016-08-22T09:45:31.641Z,1980
2016-08-22T09:46:31.623Z,2220
2016-08-22T09:47:31.627Z,2556
2016-08-22T09:48:31.609Z,2384
2016-08-22T09:49:31.608Z,2008
2016-08-22T09:50:30.881Z,1808
2016-08-22T09:51:31.079Z,1632
2016-08-22T09:52:31.577Z,1712
2016-08-22T09:53:30.861Z,1988
2016-08-22T09:54:30.138Z,2288
2016-08-22T09:55:30.835Z,2152
2016-08-22T09:56:30.128Z,2300
2016-08-22T09:57:30.832Z,2724
2016-08-22T09:58:30.808Z,2864
2016-08-22T09:59:32.210Z,2700
2016-08-22T10:00:30.788Z,2464
2016-08-22T10:01:30.783Z,2404
2016-08-22T10:02:31.475Z,2524
2016-08-22T10:03:30.768Z,2460
2016-08-22T10:04:30.756Z,2476
2016-08-22T10:05:30.033Z,2492
2016-08-22T10:06:30.032Z,2580
2016-08-22T10:07:30.743Z,2544
2016-08-22T10:08:31.424Z,2292
2016-08-22T10:09:30.707Z,2216
2016-08-22T10:10:29.986Z,2284
2016-08-22T10:11:30.682Z,2672
2016-08-22T10:12:29.972Z,2828
2016-08-22T10:13:30.667Z,3044
2016-08-22T10:14:31.375Z,3448
2016-08-22T10:15:31.368Z,3504
2016-08-22T10:16:29.931Z,3852
2016-08-22T10:17:29.920Z,4272
2016-08-22T10:18:29.922Z,4004
2016-08-22T10:19:30.614Z,3488
2016-08-22T10:20:30.601Z,3408
2016-08-22T10:21:30.600Z,3356
2016-08-22T10:22:29.883Z,3144
2016-08-22T10:23:30.576Z,3404
2016-08-22T10:24:30.563Z,3480
2016-08-22T10:25:30.560Z,3336
2016-08-22T10:26:30.556Z,3384
2016-08-22T10:27:29.840Z,4048
2016-08-22T10:28:30.529Z,4268
2016-08-22T10:29:29.817Z,4832
2016-08-22T10:30:29.806Z,5204
2016-08-22T10:31:29.789Z,5152
2016-08-22T10:32:30.493Z,5412
2016-08-22T10:33:29.776Z,5272
2016-08-22T10:34:31.180Z,4640
2016-08-22T10:35:31.173Z,4076
2016-08-22T10:36:31.162Z,3776
2016-08-22T10:37:30.445Z,4236
2016-08-22T10:38:29.730Z,4524
2016-08-22T10:39:31.140Z,5068
2016-08-22T10:40:29.710Z,5044
2016-08-22T10:41:29.709Z,5276
2016-08-22T10:42:30.411Z,4996
2016-08-22T10:43:31.807Z,4724
2016-08-22T10:44:30.391Z,4632
2016-08-22T10:45:29.672Z,4212
2016-08-22T10:46:30.375Z,3652
2016-08-22T10:47:29.652Z,3556
2016-08-22T10:48:30.352Z,3828
2016-08-22T10:49:29.632Z,4000
2016-08-22T10:50:30.336Z,4200
2016-08-22T10:51:31.039Z,4424
2016-08-22T10:52:29.612Z,4596
2016-08-22T10:53:30.305Z,4712
2016-08-22T10:54:31.019Z,4564
2016-08-22T10:55:30.291Z,5000
2016-08-22T10:56:29.574Z,5328
2016-08-22T10:57:29.566Z,4832
2016-08-22T10:58:29.559Z,4320
2016-08-22T10:59:30.964Z,3888
2016-08-22T11:00:30.247Z,3780
2016-08-22T11:01:29.534Z,3684
2016-08-22T11:02:29.524Z,3708
2016-08-22T11:03:30.220Z,3568
2016-08-22T11:04:30.214Z,3200
2016-08-22T11:05:29.502Z,3240
2016-08-22T11:06:30.193Z,3072
2016-08-22T11:07:29.479Z,3040
2016-08-22T11:08:30.886Z,3160
2016-08-22T11:09:30.166Z,3360
2016-08-22T11:10:30.164Z,3976
2016-08-22T11:11:30.857Z,4512
2016-08-22T11:12:29.436Z,4608
2016-08-22T11:13:29.436Z,4504
2016-08-22T11:14:30.836Z,4368
2016-08-22T11:15:29.409Z,3996
2016-08-22T11:16:30.104Z,4660
2016-08-22T11:17:30.101Z,5236
2016-08-22T11:18:30.093Z,5040
2016-08-22T11:19:30.087Z,4792
2016-08-22T11:20:30.072Z,4740
2016-08-22T11:21:29.364Z,4628
2016-08-22T11:22:30.055Z,4492
2016-08-22T11:23:30.756Z,3868
2016-08-22T11:24:30.048Z,3520
2016-08-22T11:25:29.328Z,3752
2016-08-22T11:26:30.029Z,3728
2016-08-22T11:27:31.425Z,3524
2016-08-22T11:28:29.299Z,3512
2016-08-22T11:29:31.426Z,3412
2016-08-22T11:30:29.985Z,3016
2016-08-22T11:31:29.983Z,3408
2016-08-22T11:32:30.682Z,3184
2016-08-22T11:33:29.961Z,3056
2016-08-22T11:34:29.964Z,3784
2016-08-22T11:35:29.240Z,4924
2016-08-22T11:36:29.939Z,5168
2016-08-22T11:37:29.931Z,4976
2016-08-22T11:38:30.631Z,4868
2016-08-22T11:39:29.914Z,5024
2016-08-22T11:40:29.905Z,5132
2016-08-22T11:41:29.897Z,4628
2016-08-22T11:42:29.901Z,4380
2016-08-22T11:43:29.882Z,3952
2016-08-22T11:44:29.165Z,4084
2016-08-22T11:45:30.566Z,3624
2016-08-22T11:46:30.563Z,4008
2016-08-22T11:47:29.858Z,3800
2016-08-22T11:48:30.539Z,3608
2016-08-22T11:49:31.284Z,3668
2016-08-22T11:50:29.113Z,3364
2016-08-22T11:51:31.458Z,3888
2016-08-22T11:52:30.530Z,3960
2016-08-22T11:53:30.506Z,3472
2016-08-22T11:54:29.791Z,3620
2016-08-22T11:55:29.080Z,3084
2016-08-22T11:56:30.526Z,3388
2016-08-22T11:57:29.760Z,3336
2016-08-22T11:58:29.057Z,3780
2016-08-22T11:59:30.456Z,3328
2016-08-22T12:00:30.451Z,3208
2016-08-22T12:01:30.440Z,3428
2016-08-22T12:02:29.721Z,3672
2016-08-22T12:03:30.415Z,3156
2016-08-22T12:04:28.994Z,3532
2016-08-22T12:05:30.398Z,3476
2016-08-22T12:06:28.986Z,3404
2016-08-22T12:07:29.679Z,3348
2016-08-22T12:08:28.964Z,2840
2016-08-22T12:09:28.949Z,3104
2016-08-22T12:10:29.676Z,3004
2016-08-22T12:11:28.986Z,3540
2016-08-22T12:12:28.927Z,3384
2016-08-22T12:13:28.917Z,3336
2016-08-22T12:14:30.332Z,3948
2016-08-22T12:15:30.311Z,4296
2016-08-22T12:16:28.895Z,4216
2016-08-22T12:17:29.594Z,3852
2016-08-22T12:18:29.596Z,3420
2016-08-22T12:19:29.576Z,3620
2016-08-22T12:20:30.276Z,3716
2016-08-22T12:21:29.557Z,3624
2016-08-22T12:22:28.841Z,3812
2016-08-22T12:23:29.557Z,4188
2016-08-22T12:24:28.825Z,4220
2016-08-22T12:25:28.820Z,4560
2016-08-22T12:26:29.520Z,4428
2016-08-22T12:27:30.219Z,4404
2016-08-22T12:28:28.795Z,4116
2016-08-22T12:29:29.506Z,4072
2016-08-22T12:30:29.485Z,4064
2016-08-22T12:31:29.501Z,3992
2016-08-22T12:32:28.757Z,4136
2016-08-22T12:33:28.751Z,3968
2016-08-22T12:34:30.172Z,3812
2016-08-22T12:35:28.731Z,3588
2016-08-22T12:36:29.430Z,3272
2016-08-22T12:37:28.720Z,3096
2016-08-22T12:38:28.730Z,3024
2016-08-22T12:39:29.406Z,3304
2016-08-22T12:40:28.707Z,3444
2016-08-22T12:41:30.106Z,3864
2016-08-22T12:42:29.381Z,3900
2016-08-22T12:43:30.087Z,3928
2016-08-22T12:44:30.081Z,3968
2016-08-22T12:45:29.363Z,4656
2016-08-22T12:46:28.647Z,4856
2016-08-22T12:47:30.070Z,4212
2016-08-22T12:48:29.336Z,4516
2016-08-22T12:49:30.741Z,4904
2016-08-22T12:50:30.739Z,4920
2016-08-22T12:51:30.018Z,4816
2016-08-22T12:52:30.011Z,5412
2016-08-22T12:53:28.591Z,5516
2016-08-22T12:54:30.033Z,5324
2016-08-22T12:55:28.575Z,5400
2016-08-22T12:56:29.977Z,5168
2016-08-22T12:57:30.002Z,5352
2016-08-22T12:58:29.271Z,5140
2016-08-22T12:59:29.979Z,5072
2016-08-22T13:00:30.663Z,5792
2016-08-22T13:01:29.941Z,6136
2016-08-22T13:02:30.637Z,5028
2016-08-22T13:03:30.626Z,4448
2016-08-22T13:04:28.526Z,4956
2016-08-22T13:05:28.500Z,5368
2016-08-22T13:06:29.903Z,5384
2016-08-22T13:07:29.887Z,6332
2016-08-22T13:08:29.910Z,6800
2016-08-22T13:09:29.183Z,6712
2016-08-22T13:10:29.162Z,5512
2016-08-22T13:11:29.162Z,5548
2016-08-22T13:12:30.141Z,5288
2016-08-22T13:13:29.851Z,4948
2016-08-22T13:14:29.127Z,4732
2016-08-22T13:15:29.118Z,5044
2016-08-22T13:16:28.405Z,5252
2016-08-22T13:17:29.834Z,4392
2016-08-22T13:18:30.537Z,4060
2016-08-22T13:19:29.823Z,4440
2016-08-22T13:20:28.377Z,4412
2016-08-22T13:21:29.086Z,4620
2016-08-22T13:22:30.491Z,4752
2016-08-22T13:23:29.084Z,4996
2016-08-22T13:24:29.046Z,4924
2016-08-22T13:25:29.749Z,4760
2016-08-22T13:26:29.749Z,4988
2016-08-22T13:27:29.041Z,4904
2016-08-22T13:28:29.733Z,4968
2016-08-22T13:29:29.731Z,4416
2016-08-22T13:30:29.710Z,4664
2016-08-22T13:31:28.289Z,4592
2016-08-22T13:32:28.996Z,4496
2016-08-22T13:33:28.268Z,4680
2016-08-22T13:34:28.980Z,3780
2016-08-22T13:35:28.257Z,3864
2016-08-22T13:36:29.171Z,3320
2016-08-22T13:37:29.663Z,2944
2016-08-22T13:38:29.647Z,2700
2016-08-22T13:39:28.937Z,2216
2016-08-22T13:40:30.341Z,1908
2016-08-22T13:41:28.207Z,1712
2016-08-22T13:42:29.614Z,1764
2016-08-22T13:43:28.900Z,1820
2016-08-22T13:44:28.897Z,1900
2016-08-22T13:45:29.591Z,1848
2016-08-22T13:46:28.893Z,1972